Galati, Romania
Current Conditions -  °F | °C
As of 4:30 AM on Thursday 23 Oct 2014 (Local Time) from LRCK Reporting Station
Clear Clear  
Wind Chill: 59°   Ceiling: Unl
Heat Index: 59°   Visibility: 6mi
Dew Point: 59°   Wind: 9mph
Humidity: 100%   Direction: 180°S
Pressure: 29.59"   Gusts: NA
Location:  45.44°N, 28.04°E
Report Text: LRCK 230130Z 18008KT CAVOK 15/15 Q1002 NOSIG
Loading
Personal Weather Stations






























Interactive Weather Map
Tropical Storm Tracking
New forecast layout! Learn more

10-Day Weather Forecast

Advertisements
Track Severe Weather on mobile